sensor_id;sensor_type;location;lat;lon;timestamp;temperature;humidity
17252;DHT22;8742;51.716;8.790;2023-04-08T00:00:05;3.50;99.90
17252;DHT22;8742;51.716;8.790;2023-04-08T00:02:33;3.50;99.90
17252;DHT22;8742;51.716;8.790;2023-04-08T00:05:00;3.50;99.90
17252;DHT22;8742;51.716;8.790;2023-04-08T00:07:27;3.50;99.90
17252;DHT22;8742;51.716;8.790;2023-04-08T00:09:55;3.50;99.90
17252;DHT22;8742;51.716;8.790;2023-04-08T00:12:22;3.50;99.90
17252;DHT22;8742;51.716;8.790;2023-04-08T00:14:49;3.50;99.90
17252;DHT22;8742;51.716;8.790;2023-04-08T00:17:16;3.50;99.90
17252;DHT22;8742;51.716;8.790;2023-04-08T00:19:43;3.60;99.90
17252;DHT22;8742;51.716;8.790;2023-04-08T00:22:10;3.60;99.90
17252;DHT22;8742;51.716;8.790;2023-04-08T00:24:37;3.60;99.90
17252;DHT22;8742;51.716;8.790;2023-04-08T00:27:06;3.80;99.90
17252;DHT22;8742;51.716;8.790;2023-04-08T00:29:33;3.80;99.90
17252;DHT22;8742;51.716;8.790;2023-04-08T00:32:00;3.90;99.90
17252;DHT22;8742;51.716;8.790;2023-04-08T00:34:27;4.00;99.90
17252;DHT22;8742;51.716;8.790;2023-04-08T00:37:01;4.10;99.90
17252;DHT22;8742;51.716;8.790;2023-04-08T00:39:44;4.20;99.90
17252;DHT22;8742;51.716;8.790;2023-04-08T00:42:20;4.30;99.90
17252;DHT22;8742;51.716;8.790;2023-04-08T00:44:47;4.40;99.90
17252;DHT22;8742;51.716;8.790;2023-04-08T00:47:14;4.40;99.90
17252;DHT22;8742;51.716;8.790;2023-04-08T00:49:41;4.50;99.90
17252;DHT22;8742;51.716;8.790;2023-04-08T00:52:08;4.60;99.90
17252;DHT22;8742;51.716;8.790;2023-04-08T00:54:36;4.60;99.90
17252;DHT22;8742;51.716;8.790;2023-04-08T00:57:04;4.70;99.90
17252;DHT22;8742;51.716;8.790;2023-04-08T00:59:32;4.70;99.90
17252;DHT22;8742;51.716;8.790;2023-04-08T01:02:09;4.80;99.90
17252;DHT22;8742;51.716;8.790;2023-04-08T01:04:45;4.80;99.90
17252;DHT22;8742;51.716;8.790;2023-04-08T01:07:19;4.80;99.90
17252;DHT22;8742;51.716;8.790;2023-04-08T01:09:49;4.80;99.90
17252;DHT22;8742;51.716;8.790;2023-04-08T01:12:21;4.90;99.90
17252;DHT22;8742;51.716;8.790;2023-04-08T01:17:22;4.90;99.90
17252;DHT22;8742;51.716;8.790;2023-04-08T01:19:49;5.00;99.90
17252;DHT22;8742;51.716;8.790;2023-04-08T01:22:22;5.00;99.90
17252;DHT22;8742;51.716;8.790;2023-04-08T01:24:58;5.10;99.90
17252;DHT22;8742;51.716;8.790;2023-04-08T01:27:30;5.10;99.90
17252;DHT22;8742;51.716;8.790;2023-04-08T01:29:58;5.20;99.90
17252;DHT22;8742;51.716;8.790;2023-04-08T01:32:28;5.20;99.90
17252;DHT22;8742;51.716;8.790;2023-04-08T01:34:57;5.30;99.90
17252;DHT22;8742;51.716;8.790;2023-04-08T01:37:25;5.30;99.90
17252;DHT22;8742;51.716;8.790;2023-04-08T01:39:54;5.30;99.90
17252;DHT22;8742;51.716;8.790;2023-04-08T01:42:23;5.40;99.90
17252;DHT22;8742;51.716;8.790;2023-04-08T01:44:55;5.40;99.90
17252;DHT22;8742;51.716;8.790;2023-04-08T01:47:23;5.40;99.90
17252;DHT22;8742;51.716;8.790;2023-04-08T01:49:52;5.50;99.90
17252;DHT22;8742;51.716;8.790;2023-04-08T01:52:20;5.50;99.90
17252;DHT22;8742;51.716;8.790;2023-04-08T01:54:48;5.50;99.90
17252;DHT22;8742;51.716;8.790;2023-04-08T01:57:20;5.60;99.90
17252;DHT22;8742;51.716;8.790;2023-04-08T01:59:52;5.60;99.90
17252;DHT22;8742;51.716;8.790;2023-04-08T02:02:24;5.60;99.90
17252;DHT22;8742;51.716;8.790;2023-04-08T02:04:52;5.60;99.90
17252;DHT22;8742;51.716;8.790;2023-04-08T02:07:20;5.60;99.90
17252;DHT22;8742;51.716;8.790;2023-04-08T02:09:47;5.70;99.90
17252;DHT22;8742;51.716;8.790;2023-04-08T02:12:14;5.70;99.90
17252;DHT22;8742;51.716;8.790;2023-04-08T02:14:41;5.70;99.90
17252;DHT22;8742;51.716;8.790;2023-04-08T02:17:12;5.70;99.90
17252;DHT22;8742;51.716;8.790;2023-04-08T02:19:45;5.70;99.90
17252;DHT22;8742;51.716;8.790;2023-04-08T02:22:18;5.70;99.90
17252;DHT22;8742;51.716;8.790;2023-04-08T02:24:50;5.70;99.90
17252;DHT22;8742;51.716;8.790;2023-04-08T02:27:17;5.70;99.90
17252;DHT22;8742;51.716;8.790;2023-04-08T02:29:45;5.70;99.90
17252;DHT22;8742;51.716;8.790;2023-04-08T02:32:15;5.70;99.90
17252;DHT22;8742;51.716;8.790;2023-04-08T02:34:43;5.70;99.90
17252;DHT22;8742;51.716;8.790;2023-04-08T02:37:10;5.80;99.90
17252;DHT22;8742;51.716;8.790;2023-04-08T02:39:37;5.80;99.90
17252;DHT22;8742;51.716;8.790;2023-04-08T02:42:04;5.80;99.90
17252;DHT22;8742;51.716;8.790;2023-04-08T02:44:31;5.80;99.90
17252;DHT22;8742;51.716;8.790;2023-04-08T02:46:58;5.80;99.90
17252;DHT22;8742;51.716;8.790;2023-04-08T02:49:26;5.80;99.90
17252;DHT22;8742;51.716;8.790;2023-04-08T02:51:53;5.80;99.90
17252;DHT22;8742;51.716;8.790;2023-04-08T02:54:20;5.90;99.90
17252;DHT22;8742;51.716;8.790;2023-04-08T02:56:47;5.90;99.90
17252;DHT22;8742;51.716;8.790;2023-04-08T02:59:14;5.90;99.90
17252;DHT22;8742;51.716;8.790;2023-04-08T03:01:42;5.90;99.90
17252;DHT22;8742;51.716;8.790;2023-04-08T03:04:09;6.00;99.90
17252;DHT22;8742;51.716;8.790;2023-04-08T03:06:37;6.00;99.90
17252;DHT22;8742;51.716;8.790;2023-04-08T03:09:04;6.00;99.90
17252;DHT22;8742;51.716;8.790;2023-04-08T03:11:31;5.90;99.90
17252;DHT22;8742;51.716;8.790;2023-04-08T03:13:58;6.00;99.90
17252;DHT22;8742;51.716;8.790;2023-04-08T03:16:25;6.00;99.90
17252;DHT22;8742;51.716;8.790;2023-04-08T03:18:52;6.00;99.90
17252;DHT22;8742;51.716;8.790;2023-04-08T03:21:19;6.00;99.90
17252;DHT22;8742;51.716;8.790;2023-04-08T03:23:47;6.00;99.90
17252;DHT22;8742;51.716;8.790;2023-04-08T03:26:14;6.00;99.90
17252;DHT22;8742;51.716;8.790;2023-04-08T03:28:41;6.00;99.90
17252;DHT22;8742;51.716;8.790;2023-04-08T03:31:09;6.00;99.90
17252;DHT22;8742;51.716;8.790;2023-04-08T03:33:36;6.00;99.90
17252;DHT22;8742;51.716;8.790;2023-04-08T03:36:03;6.00;99.90
17252;DHT22;8742;51.716;8.790;2023-04-08T03:38:30;6.00;99.90
17252;DHT22;8742;51.716;8.790;2023-04-08T03:40:58;6.00;99.90
17252;DHT22;8742;51.716;8.790;2023-04-08T03:43:25;6.00;99.90
17252;DHT22;8742;51.716;8.790;2023-04-08T03:45:52;6.00;99.90
17252;DHT22;8742;51.716;8.790;2023-04-08T03:48:19;6.00;99.90
17252;DHT22;8742;51.716;8.790;2023-04-08T03:50:46;5.90;99.90
17252;DHT22;8742;51.716;8.790;2023-04-08T03:53:13;5.90;99.90
17252;DHT22;8742;51.716;8.790;2023-04-08T03:55:40;5.90;99.90
17252;DHT22;8742;51.716;8.790;2023-04-08T03:58:08;5.90;99.90
17252;DHT22;8742;51.716;8.790;2023-04-08T04:00:35;5.90;99.90
17252;DHT22;8742;51.716;8.790;2023-04-08T04:03:02;5.90;99.90
17252;DHT22;8742;51.716;8.790;2023-04-08T04:05:29;5.90;99.90
17252;DHT22;8742;51.716;8.790;2023-04-08T04:07:56;5.90;99.90
17252;DHT22;8742;51.716;8.790;2023-04-08T04:10:23;5.80;99.90
17252;DHT22;8742;51.716;8.790;2023-04-08T04:12:50;5.80;99.90
17252;DHT22;8742;51.716;8.790;2023-04-08T04:15:18;5.80;99.90
17252;DHT22;8742;51.716;8.790;2023-04-08T04:17:46;5.80;99.90
17252;DHT22;8742;51.716;8.790;2023-04-08T04:20:15;5.80;99.90
17252;DHT22;8742;51.716;8.790;2023-04-08T04:22:42;5.80;99.90
17252;DHT22;8742;51.716;8.790;2023-04-08T04:25:09;5.80;99.90
17252;DHT22;8742;51.716;8.790;2023-04-08T04:27:36;5.80;99.90
17252;DHT22;8742;51.716;8.790;2023-04-08T04:30:04;5.80;99.90
17252;DHT22;8742;51.716;8.790;2023-04-08T04:32:33;5.80;99.90
17252;DHT22;8742;51.716;8.790;2023-04-08T04:35:00;5.90;99.90
17252;DHT22;8742;51.716;8.790;2023-04-08T04:37:27;5.90;99.90
17252;DHT22;8742;51.716;8.790;2023-04-08T04:39:54;5.90;99.90
17252;DHT22;8742;51.716;8.790;2023-04-08T04:42:21;5.90;99.90
17252;DHT22;8742;51.716;8.790;2023-04-08T04:44:48;5.90;99.90
17252;DHT22;8742;51.716;8.790;2023-04-08T04:47:14;5.90;99.90
17252;DHT22;8742;51.716;8.790;2023-04-08T04:49:43;5.90;99.90
17252;DHT22;8742;51.716;8.790;2023-04-08T04:52:10;5.90;99.90
17252;DHT22;8742;51.716;8.790;2023-04-08T04:54:37;5.90;99.90
17252;DHT22;8742;51.716;8.790;2023-04-08T04:57:04;5.90;99.90
17252;DHT22;8742;51.716;8.790;2023-04-08T04:59:31;5.90;99.90
17252;DHT22;8742;51.716;8.790;2023-04-08T05:01:58;6.00;99.90
17252;DHT22;8742;51.716;8.790;2023-04-08T05:04:25;6.00;99.90
17252;DHT22;8742;51.716;8.790;2023-04-08T05:06:54;6.00;99.90
17252;DHT22;8742;51.716;8.790;2023-04-08T05:09:21;6.00;99.90
17252;DHT22;8742;51.716;8.790;2023-04-08T05:11:47;6.00;99.90
17252;DHT22;8742;51.716;8.790;2023-04-08T05:14:15;6.00;99.90
17252;DHT22;8742;51.716;8.790;2023-04-08T05:16:42;6.10;99.90
17252;DHT22;8742;51.716;8.790;2023-04-08T05:19:09;6.10;99.90
17252;DHT22;8742;51.716;8.790;2023-04-08T05:21:36;6.10;99.90
17252;DHT22;8742;51.716;8.790;2023-04-08T05:24:04;6.10;99.90
17252;DHT22;8742;51.716;8.790;2023-04-08T05:26:31;6.10;99.90
17252;DHT22;8742;51.716;8.790;2023-04-08T05:29:15;6.10;99.90
17252;DHT22;8742;51.716;8.790;2023-04-08T05:32:03;6.10;99.90
17252;DHT22;8742;51.716;8.790;2023-04-08T05:34:30;6.10;99.90
17252;DHT22;8742;51.716;8.790;2023-04-08T05:36:57;6.10;99.90
17252;DHT22;8742;51.716;8.790;2023-04-08T05:39:25;6.10;99.90
17252;DHT22;8742;51.716;8.790;2023-04-08T05:41:52;6.10;99.90
17252;DHT22;8742;51.716;8.790;2023-04-08T05:44:19;6.10;99.90
17252;DHT22;8742;51.716;8.790;2023-04-08T05:46:46;6.10;99.90
17252;DHT22;8742;51.716;8.790;2023-04-08T05:49:13;6.10;99.90
17252;DHT22;8742;51.716;8.790;2023-04-08T05:51:42;6.20;99.90
17252;DHT22;8742;51.716;8.790;2023-04-08T05:54:08;6.20;99.90
17252;DHT22;8742;51.716;8.790;2023-04-08T05:56:37;6.20;99.90
17252;DHT22;8742;51.716;8.790;2023-04-08T05:59:04;6.20;99.90
17252;DHT22;8742;51.716;8.790;2023-04-08T06:01:31;6.20;99.90
17252;DHT22;8742;51.716;8.790;2023-04-08T06:03:57;6.20;99.90
17252;DHT22;8742;51.716;8.790;2023-04-08T06:06:24;6.20;99.90
17252;DHT22;8742;51.716;8.790;2023-04-08T06:08:51;6.20;99.90
17252;DHT22;8742;51.716;8.790;2023-04-08T06:11:18;6.20;99.90
17252;DHT22;8742;51.716;8.790;2023-04-08T06:13:47;6.20;99.90
17252;DHT22;8742;51.716;8.790;2023-04-08T06:16:15;6.20;99.90
17252;DHT22;8742;51.716;8.790;2023-04-08T06:18:43;6.20;99.90
17252;DHT22;8742;51.716;8.790;2023-04-08T06:21:10;6.30;99.90
17252;DHT22;8742;51.716;8.790;2023-04-08T06:23:37;6.30;99.90
17252;DHT22;8742;51.716;8.790;2023-04-08T06:26:04;6.30;99.90
17252;DHT22;8742;51.716;8.790;2023-04-08T06:28:31;6.40;99.90
17252;DHT22;8742;51.716;8.790;2023-04-08T06:30:59;6.40;99.90
17252;DHT22;8742;51.716;8.790;2023-04-08T06:33:26;6.40;99.90
17252;DHT22;8742;51.716;8.790;2023-04-08T06:36:01;6.50;99.90
17252;DHT22;8742;51.716;8.790;2023-04-08T06:38:28;6.60;99.90
17252;DHT22;8742;51.716;8.790;2023-04-08T06:40:55;6.60;99.90
17252;DHT22;8742;51.716;8.790;2023-04-08T06:43:22;6.70;99.90
17252;DHT22;8742;51.716;8.790;2023-04-08T06:45:49;6.70;99.90
17252;DHT22;8742;51.716;8.790;2023-04-08T06:48:18;6.70;99.90
17252;DHT22;8742;51.716;8.790;2023-04-08T06:50:45;6.80;99.90
17252;DHT22;8742;51.716;8.790;2023-04-08T06:53:12;6.80;99.90
17252;DHT22;8742;51.716;8.790;2023-04-08T06:55:39;6.80;99.90
17252;DHT22;8742;51.716;8.790;2023-04-08T06:58:06;6.90;99.90
17252;DHT22;8742;51.716;8.790;2023-04-08T07:00:32;6.90;99.90
17252;DHT22;8742;51.716;8.790;2023-04-08T07:02:59;6.90;99.90
17252;DHT22;8742;51.716;8.790;2023-04-08T07:05:28;7.00;99.90
17252;DHT22;8742;51.716;8.790;2023-04-08T07:07:55;7.00;99.90
17252;DHT22;8742;51.716;8.790;2023-04-08T07:10:22;7.10;99.90
17252;DHT22;8742;51.716;8.790;2023-04-08T07:12:49;7.20;99.90
17252;DHT22;8742;51.716;8.790;2023-04-08T07:15:17;7.30;99.90
17252;DHT22;8742;51.716;8.790;2023-04-08T07:17:44;7.40;99.90
17252;DHT22;8742;51.716;8.790;2023-04-08T07:20:12;7.40;99.90
17252;DHT22;8742;51.716;8.790;2023-04-08T07:22:40;7.40;99.90
17252;DHT22;8742;51.716;8.790;2023-04-08T07:25:13;7.40;99.90
17252;DHT22;8742;51.716;8.790;2023-04-08T07:27:40;7.40;99.90
17252;DHT22;8742;51.716;8.790;2023-04-08T07:30:08;7.40;99.90
17252;DHT22;8742;51.716;8.790;2023-04-08T07:32:35;7.40;99.90
17252;DHT22;8742;51.716;8.790;2023-04-08T07:35:02;7.40;99.90
17252;DHT22;8742;51.716;8.790;2023-04-08T07:37:29;7.50;99.90
17252;DHT22;8742;51.716;8.790;2023-04-08T07:39:57;7.50;99.90
17252;DHT22;8742;51.716;8.790;2023-04-08T07:42:24;7.50;99.90
17252;DHT22;8742;51.716;8.790;2023-04-08T07:44:52;7.50;99.90
17252;DHT22;8742;51.716;8.790;2023-04-08T07:47:18;7.50;99.90
17252;DHT22;8742;51.716;8.790;2023-04-08T07:49:46;7.60;99.90
17252;DHT22;8742;51.716;8.790;2023-04-08T07:52:13;7.60;99.90
17252;DHT22;8742;51.716;8.790;2023-04-08T07:54:40;7.70;99.90
17252;DHT22;8742;51.716;8.790;2023-04-08T07:57:12;7.80;99.90
17252;DHT22;8742;51.716;8.790;2023-04-08T07:59:39;7.90;99.90
17252;DHT22;8742;51.716;8.790;2023-04-08T08:02:06;8.00;99.90
17252;DHT22;8742;51.716;8.790;2023-04-08T08:04:33;8.10;99.90
17252;DHT22;8742;51.716;8.790;2023-04-08T08:07:00;8.20;99.90
17252;DHT22;8742;51.716;8.790;2023-04-08T08:09:27;8.30;99.90
17252;DHT22;8742;51.716;8.790;2023-04-08T08:11:53;8.40;99.90
17252;DHT22;8742;51.716;8.790;2023-04-08T08:14:22;8.50;99.90
17252;DHT22;8742;51.716;8.790;2023-04-08T08:16:49;8.50;99.90
17252;DHT22;8742;51.716;8.790;2023-04-08T08:19:17;8.60;99.90
17252;DHT22;8742;51.716;8.790;2023-04-08T08:21:44;8.60;99.90
17252;DHT22;8742;51.716;8.790;2023-04-08T08:24:11;8.60;99.90
17252;DHT22;8742;51.716;8.790;2023-04-08T08:26:38;8.60;99.90
17252;DHT22;8742;51.716;8.790;2023-04-08T08:29:05;8.60;99.90
17252;DHT22;8742;51.716;8.790;2023-04-08T08:31:34;8.60;99.90
17252;DHT22;8742;51.716;8.790;2023-04-08T08:34:01;8.70;99.90
17252;DHT22;8742;51.716;8.790;2023-04-08T08:36:28;8.80;99.90
17252;DHT22;8742;51.716;8.790;2023-04-08T08:38:55;8.90;99.90
17252;DHT22;8742;51.716;8.790;2023-04-08T08:41:22;8.90;99.90
17252;DHT22;8742;51.716;8.790;2023-04-08T08:43:49;9.00;99.90
17252;DHT22;8742;51.716;8.790;2023-04-08T08:46:17;9.00;99.90
17252;DHT22;8742;51.716;8.790;2023-04-08T08:48:46;9.00;99.90
17252;DHT22;8742;51.716;8.790;2023-04-08T08:51:13;9.10;99.90
17252;DHT22;8742;51.716;8.790;2023-04-08T08:53:40;9.20;99.90
17252;DHT22;8742;51.716;8.790;2023-04-08T08:56:10;9.30;99.90
17252;DHT22;8742;51.716;8.790;2023-04-08T08:58:37;9.40;99.90
17252;DHT22;8742;51.716;8.790;2023-04-08T09:01:29;9.50;99.90
17252;DHT22;8742;51.716;8.790;2023-04-08T09:04:08;9.50;99.90
17252;DHT22;8742;51.716;8.790;2023-04-08T09:06:36;9.50;99.90
17252;DHT22;8742;51.716;8.790;2023-04-08T09:09:03;9.50;99.90
17252;DHT22;8742;51.716;8.790;2023-04-08T09:11:35;9.60;99.90
17252;DHT22;8742;51.716;8.790;2023-04-08T09:14:03;9.60;99.90
17252;DHT22;8742;51.716;8.790;2023-04-08T09:16:31;9.70;99.90
17252;DHT22;8742;51.716;8.790;2023-04-08T09:19:09;9.90;99.90
17252;DHT22;8742;51.716;8.790;2023-04-08T09:21:36;10.10;99.90
17252;DHT22;8742;51.716;8.790;2023-04-08T09:24:05;10.30;99.90
17252;DHT22;8742;51.716;8.790;2023-04-08T09:26:32;10.40;99.90
17252;DHT22;8742;51.716;8.790;2023-04-08T09:29:00;10.40;99.90
17252;DHT22;8742;51.716;8.790;2023-04-08T09:31:31;10.40;99.90
17252;DHT22;8742;51.716;8.790;2023-04-08T09:34:10;10.50;99.90
17252;DHT22;8742;51.716;8.790;2023-04-08T09:36:37;10.60;99.90
17252;DHT22;8742;51.716;8.790;2023-04-08T09:39:05;10.80;99.90
17252;DHT22;8742;51.716;8.790;2023-04-08T09:41:34;10.80;99.90
17252;DHT22;8742;51.716;8.790;2023-04-08T09:44:04;10.90;99.90
17252;DHT22;8742;51.716;8.790;2023-04-08T09:46:35;11.10;99.90
17252;DHT22;8742;51.716;8.790;2023-04-08T09:49:05;11.20;99.90
17252;DHT22;8742;51.716;8.790;2023-04-08T09:51:40;11.30;99.90
17252;DHT22;8742;51.716;8.790;2023-04-08T09:54:12;11.30;99.90
17252;DHT22;8742;51.716;8.790;2023-04-08T09:56:43;11.30;99.90
17252;DHT22;8742;51.716;8.790;2023-04-08T09:59:14;11.20;99.90
17252;DHT22;8742;51.716;8.790;2023-04-08T10:01:46;11.20;99.90
17252;DHT22;8742;51.716;8.790;2023-04-08T10:04:18;11.20;99.90
17252;DHT22;8742;51.716;8.790;2023-04-08T10:06:53;11.20;99.90
17252;DHT22;8742;51.716;8.790;2023-04-08T10:09:21;11.30;99.90
17252;DHT22;8742;51.716;8.790;2023-04-08T10:11:48;11.30;99.90
17252;DHT22;8742;51.716;8.790;2023-04-08T10:14:15;11.50;99.90
17252;DHT22;8742;51.716;8.790;2023-04-08T10:16:42;11.60;99.90
17252;DHT22;8742;51.716;8.790;2023-04-08T10:19:36;11.70;99.90
17252;DHT22;8742;51.716;8.790;2023-04-08T10:25:31;12.00;99.90
17252;DHT22;8742;51.716;8.790;2023-04-08T10:27:58;12.30;99.90
17252;DHT22;8742;51.716;8.790;2023-04-08T10:30:41;12.50;99.90
17252;DHT22;8742;51.716;8.790;2023-04-08T10:33:10;12.60;99.90
17252;DHT22;8742;51.716;8.790;2023-04-08T10:35:40;12.60;99.90
17252;DHT22;8742;51.716;8.790;2023-04-08T10:38:12;12.70;99.90
17252;DHT22;8742;51.716;8.790;2023-04-08T10:40:41;12.90;99.90
17252;DHT22;8742;51.716;8.790;2023-04-08T10:43:09;13.10;99.90
17252;DHT22;8742;51.716;8.790;2023-04-08T10:45:40;13.40;99.90
17252;DHT22;8742;51.716;8.790;2023-04-08T10:48:15;13.50;99.90
17252;DHT22;8742;51.716;8.790;2023-04-08T10:50:44;13.60;99.90
17252;DHT22;8742;51.716;8.790;2023-04-08T10:53:12;13.50;99.90
17252;DHT22;8742;51.716;8.790;2023-04-08T10:55:51;13.30;99.90
17252;DHT22;8742;51.716;8.790;2023-04-08T10:58:18;13.10;99.90
17252;DHT22;8742;51.716;8.790;2023-04-08T11:00:47;13.00;99.90
17252;DHT22;8742;51.716;8.790;2023-04-08T11:03:14;12.90;99.90
17252;DHT22;8742;51.716;8.790;2023-04-08T11:05:41;12.80;99.90
17252;DHT22;8742;51.716;8.790;2023-04-08T11:08:09;12.80;99.90
17252;DHT22;8742;51.716;8.790;2023-04-08T11:10:37;12.80;99.90
17252;DHT22;8742;51.716;8.790;2023-04-08T11:13:07;12.70;99.90
17252;DHT22;8742;51.716;8.790;2023-04-08T11:15:35;12.50;99.90
17252;DHT22;8742;51.716;8.790;2023-04-08T11:18:03;12.40;99.90
17252;DHT22;8742;51.716;8.790;2023-04-08T11:20:31;12.30;99.90
17252;DHT22;8742;51.716;8.790;2023-04-08T11:23:00;12.30;99.90
17252;DHT22;8742;51.716;8.790;2023-04-08T11:25:28;12.30;99.90
17252;DHT22;8742;51.716;8.790;2023-04-08T11:27:55;12.20;99.90
17252;DHT22;8742;51.716;8.790;2023-04-08T11:30:24;12.30;99.90
17252;DHT22;8742;51.716;8.790;2023-04-08T11:32:51;12.30;99.90
17252;DHT22;8742;51.716;8.790;2023-04-08T11:35:19;12.30;99.90
17252;DHT22;8742;51.716;8.790;2023-04-08T11:37:46;12.30;99.90
17252;DHT22;8742;51.716;8.790;2023-04-08T11:40:19;12.20;99.90
17252;DHT22;8742;51.716;8.790;2023-04-08T11:42:46;12.30;99.90
17252;DHT22;8742;51.716;8.790;2023-04-08T11:45:14;12.40;99.90
17252;DHT22;8742;51.716;8.790;2023-04-08T11:47:43;12.40;99.90
17252;DHT22;8742;51.716;8.790;2023-04-08T11:50:12;12.40;99.90
17252;DHT22;8742;51.716;8.790;2023-04-08T11:52:43;12.50;99.90
17252;DHT22;8742;51.716;8.790;2023-04-08T11:55:10;12.40;99.90
17252;DHT22;8742;51.716;8.790;2023-04-08T11:57:37;12.40;99.90
17252;DHT22;8742;51.716;8.790;2023-04-08T12:00:05;12.40;99.90
17252;DHT22;8742;51.716;8.790;2023-04-08T12:02:32;12.40;99.90
17252;DHT22;8742;51.716;8.790;2023-04-08T12:05:01;12.30;99.90
17252;DHT22;8742;51.716;8.790;2023-04-08T12:07:28;12.30;99.90
17252;DHT22;8742;51.716;8.790;2023-04-08T12:09:55;12.30;99.90
17252;DHT22;8742;51.716;8.790;2023-04-08T12:12:22;12.20;99.90
17252;DHT22;8742;51.716;8.790;2023-04-08T12:14:49;12.10;99.90
17252;DHT22;8742;51.716;8.790;2023-04-08T12:17:15;12.00;99.90
17252;DHT22;8742;51.716;8.790;2023-04-08T12:19:42;12.00;99.90
17252;DHT22;8742;51.716;8.790;2023-04-08T12:22:11;11.80;99.90
17252;DHT22;8742;51.716;8.790;2023-04-08T12:24:38;11.70;99.90
17252;DHT22;8742;51.716;8.790;2023-04-08T12:27:04;11.60;99.90
17252;DHT22;8742;51.716;8.790;2023-04-08T12:29:31;11.60;99.90
17252;DHT22;8742;51.716;8.790;2023-04-08T12:31:59;11.60;99.90
17252;DHT22;8742;51.716;8.790;2023-04-08T12:34:27;11.50;99.90
17252;DHT22;8742;51.716;8.790;2023-04-08T12:36:54;11.50;99.90
17252;DHT22;8742;51.716;8.790;2023-04-08T12:39:22;11.40;99.90
17252;DHT22;8742;51.716;8.790;2023-04-08T12:41:49;11.50;99.90
17252;DHT22;8742;51.716;8.790;2023-04-08T12:44:18;11.50;99.90
17252;DHT22;8742;51.716;8.790;2023-04-08T12:46:45;11.60;99.90
17252;DHT22;8742;51.716;8.790;2023-04-08T12:49:12;11.80;99.90
17252;DHT22;8742;51.716;8.790;2023-04-08T12:51:39;11.90;99.90
17252;DHT22;8742;51.716;8.790;2023-04-08T12:54:06;12.10;99.90
17252;DHT22;8742;51.716;8.790;2023-04-08T12:56:34;12.20;99.90
17252;DHT22;8742;51.716;8.790;2023-04-08T12:59:02;12.30;99.90
17252;DHT22;8742;51.716;8.790;2023-04-08T13:01:28;12.40;99.90
17252;DHT22;8742;51.716;8.790;2023-04-08T13:03:55;12.40;99.90
17252;DHT22;8742;51.716;8.790;2023-04-08T13:06:22;12.40;99.90
17252;DHT22;8742;51.716;8.790;2023-04-08T13:08:49;12.50;99.90
17252;DHT22;8742;51.716;8.790;2023-04-08T13:11:16;12.40;99.90
17252;DHT22;8742;51.716;8.790;2023-04-08T13:13:44;12.40;99.90
17252;DHT22;8742;51.716;8.790;2023-04-08T13:16:12;12.40;99.90
17252;DHT22;8742;51.716;8.790;2023-04-08T13:18:39;12.40;99.90
17252;DHT22;8742;51.716;8.790;2023-04-08T13:21:06;12.40;99.90
17252;DHT22;8742;51.716;8.790;2023-04-08T13:23:33;12.40;99.90
17252;DHT22;8742;51.716;8.790;2023-04-08T13:26:00;12.40;99.90
17252;DHT22;8742;51.716;8.790;2023-04-08T13:28:28;12.30;99.90
17252;DHT22;8742;51.716;8.790;2023-04-08T13:30:56;12.20;99.90
17252;DHT22;8742;51.716;8.790;2023-04-08T13:33:23;12.30;99.90
17252;DHT22;8742;51.716;8.790;2023-04-08T13:35:50;12.40;99.90
17252;DHT22;8742;51.716;8.790;2023-04-08T13:38:17;12.40;99.90
17252;DHT22;8742;51.716;8.790;2023-04-08T13:40:43;12.50;99.90
17252;DHT22;8742;51.716;8.790;2023-04-08T13:43:10;12.60;99.90
17252;DHT22;8742;51.716;8.790;2023-04-08T13:45:37;12.70;99.90
17252;DHT22;8742;51.716;8.790;2023-04-08T13:48:06;12.70;99.90
17252;DHT22;8742;51.716;8.790;2023-04-08T13:50:33;12.80;99.90
17252;DHT22;8742;51.716;8.790;2023-04-08T13:53:00;12.80;99.90
17252;DHT22;8742;51.716;8.790;2023-04-08T13:55:26;12.70;99.90
17252;DHT22;8742;51.716;8.790;2023-04-08T13:57:53;12.60;99.90
17252;DHT22;8742;51.716;8.790;2023-04-08T14:00:20;12.50;99.90
17252;DHT22;8742;51.716;8.790;2023-04-08T14:02:47;12.50;99.90
17252;DHT22;8742;51.716;8.790;2023-04-08T14:05:16;12.50;99.90
17252;DHT22;8742;51.716;8.790;2023-04-08T14:07:43;12.40;99.90
17252;DHT22;8742;51.716;8.790;2023-04-08T14:10:10;12.40;99.90
17252;DHT22;8742;51.716;8.790;2023-04-08T14:12:39;12.50;99.90
17252;DHT22;8742;51.716;8.790;2023-04-08T14:15:07;12.60;99.90
17252;DHT22;8742;51.716;8.790;2023-04-08T14:17:34;12.60;99.90
17252;DHT22;8742;51.716;8.790;2023-04-08T14:20:01;12.70;99.90
17252;DHT22;8742;51.716;8.790;2023-04-08T14:22:31;12.70;99.90
17252;DHT22;8742;51.716;8.790;2023-04-08T14:24:58;12.80;99.90
17252;DHT22;8742;51.716;8.790;2023-04-08T14:27:25;12.70;99.90
17252;DHT22;8742;51.716;8.790;2023-04-08T14:29:52;12.60;99.90
17252;DHT22;8742;51.716;8.790;2023-04-08T14:32:19;12.50;99.90
17252;DHT22;8742;51.716;8.790;2023-04-08T14:34:46;12.50;99.90
17252;DHT22;8742;51.716;8.790;2023-04-08T14:37:13;12.50;99.90
17252;DHT22;8742;51.716;8.790;2023-04-08T14:39:43;12.40;99.90
17252;DHT22;8742;51.716;8.790;2023-04-08T14:42:10;12.40;99.90
17252;DHT22;8742;51.716;8.790;2023-04-08T14:44:37;12.30;99.90
17252;DHT22;8742;51.716;8.790;2023-04-08T14:47:04;12.30;99.90
17252;DHT22;8742;51.716;8.790;2023-04-08T14:49:30;12.20;99.90
17252;DHT22;8742;51.716;8.790;2023-04-08T14:51:57;12.10;99.90
17252;DHT22;8742;51.716;8.790;2023-04-08T14:54:24;12.10;99.90
17252;DHT22;8742;51.716;8.790;2023-04-08T14:56:53;12.00;99.90
17252;DHT22;8742;51.716;8.790;2023-04-08T14:59:20;12.00;99.90
17252;DHT22;8742;51.716;8.790;2023-04-08T15:01:47;12.00;99.90
17252;DHT22;8742;51.716;8.790;2023-04-08T15:04:13;12.00;99.90
17252;DHT22;8742;51.716;8.790;2023-04-08T15:06:41;11.90;99.90
17252;DHT22;8742;51.716;8.790;2023-04-08T15:09:08;11.80;99.90
17252;DHT22;8742;51.716;8.790;2023-04-08T15:11:35;11.70;99.90
17252;DHT22;8742;51.716;8.790;2023-04-08T15:14:03;11.70;99.90
17252;DHT22;8742;51.716;8.790;2023-04-08T15:16:30;11.60;99.90
17252;DHT22;8742;51.716;8.790;2023-04-08T15:18:57;11.60;99.90
17252;DHT22;8742;51.716;8.790;2023-04-08T15:21:25;11.60;99.90
17252;DHT22;8742;51.716;8.790;2023-04-08T15:23:52;11.50;99.90
17252;DHT22;8742;51.716;8.790;2023-04-08T15:26:19;11.50;99.90
17252;DHT22;8742;51.716;8.790;2023-04-08T15:28:45;11.60;99.90
17252;DHT22;8742;51.716;8.790;2023-04-08T15:31:14;11.60;99.90
17252;DHT22;8742;51.716;8.790;2023-04-08T15:33:40;11.50;99.90
17252;DHT22;8742;51.716;8.790;2023-04-08T15:36:09;11.50;99.90
17252;DHT22;8742;51.716;8.790;2023-04-08T15:38:36;11.50;99.90
17252;DHT22;8742;51.716;8.790;2023-04-08T15:41:04;11.50;99.90
17252;DHT22;8742;51.716;8.790;2023-04-08T15:43:31;11.50;99.90
17252;DHT22;8742;51.716;8.790;2023-04-08T15:45:57;11.50;99.90
17252;DHT22;8742;51.716;8.790;2023-04-08T15:48:26;11.50;99.90
17252;DHT22;8742;51.716;8.790;2023-04-08T15:50:52;11.40;99.90
17252;DHT22;8742;51.716;8.790;2023-04-08T15:53:19;11.40;99.90
17252;DHT22;8742;51.716;8.790;2023-04-08T15:55:46;11.40;99.90
17252;DHT22;8742;51.716;8.790;2023-04-08T15:58:14;11.40;99.90
17252;DHT22;8742;51.716;8.790;2023-04-08T16:00:41;11.30;99.90
17252;DHT22;8742;51.716;8.790;2023-04-08T16:03:08;11.20;99.90
17252;DHT22;8742;51.716;8.790;2023-04-08T16:05:37;11.20;99.90